Terminal Aerodrome Forecast
Issued by NWS

Home | Current Version | Previous Version | Text Only | Print | Product List | Glossary On
Versions: 1 2 3 4 5 6 7 8 9 10 11 12 13 14 15 16 17 18 19 20 21 22 23 24 25 26 27 28 29 30 31 32 33 34
000
FTUS44 KOUN 301120
TAFLAW
TAF
KLAW 301120Z 3012/3112 11006KT P6SM SCT030 BKN080
     FM301700 17012G24KT P6SM SCT040 BKN120
     FM310200 15010KT P6SM BKN100 PROB30 3102/3107 P6SM TSRA
      BKN050CB=

USA.gov is the U.S. government's official web portal to all federal, state and local government web resources and services.